Austwell, Texas
Current Conditions -  °F | °C
As of 2:35 AM on Monday 26 Jan 2015 (Local Time) from KPKV Reporting Station
Clear Clear  
Wind Chill:   Ceiling: Unl
Heat Index:   Visibility: 10mi
Dew Point:   Wind: 5mph
Humidity: 77%   Direction: 310°NW
Pressure: 30.21"   Gusts: NA
Location:  28.39°N, 96.84°W
Report Text: KPKV 260835Z AUTO 31004KT 10SM CLR 09/05 A3021 RMK AO2 T00880050
Loading
Personal Weather Stations






























Interactive Weather Map New forecast layout! Learn more

10-Day Weather Forecast

Advertisements
Track Severe Weather on mobile